sensor_id;sensor_type;location;lat;lon;timestamp;pressure;altitude;pressure_sealevel;temperature;humidity
80911;BME280;70359;51.420;7.032;2024-01-15T00:00:02;987.5655;;;2.98;63.19434
80911;BME280;70359;51.420;7.032;2024-01-15T00:02:27;987.622;;;2.97;63.11523
80911;BME280;70359;51.420;7.032;2024-01-15T00:04:52;987.6509;;;3.01;63.06641
80911;BME280;70359;51.420;7.032;2024-01-15T00:07:17;987.6516;;;2.96;63.49316
80911;BME280;70359;51.420;7.032;2024-01-15T00:09:42;987.6113;;;2.95;63.66797
80911;BME280;70359;51.420;7.032;2024-01-15T00:12:07;987.5992;;;3.01;63.71094
80911;BME280;70359;51.420;7.032;2024-01-15T00:14:32;987.5587;;;2.95;63.6123
80911;BME280;70359;51.420;7.032;2024-01-15T00:16:57;987.5798;;;3;63.6416
80911;BME280;70359;51.420;7.032;2024-01-15T00:19:22;987.481;;;3.04;63.42578
80911;BME280;70359;51.420;7.032;2024-01-15T00:21:47;987.4998;;;3.08;63.31055
80911;BME280;70359;51.420;7.032;2024-01-15T00:24:12;987.3628;;;3.07;63.18652
80911;BME280;70359;51.420;7.032;2024-01-15T00:26:37;987.3038;;;3.08;63.13086
80911;BME280;70359;51.420;7.032;2024-01-15T00:29:02;987.252;;;3.05;63.20508
80911;BME280;70359;51.420;7.032;2024-01-15T00:31:27;987.3024;;;3.07;63.27539
80911;BME280;70359;51.420;7.032;2024-01-15T00:33:52;987.3117;;;3.09;63.12402
80911;BME280;70359;51.420;7.032;2024-01-15T00:36:17;987.3144;;;3.16;62.94238
80911;BME280;70359;51.420;7.032;2024-01-15T00:38:42;987.2664;;;3.07;63.01953
80911;BME280;70359;51.420;7.032;2024-01-15T00:41:07;987.2907;;;3;63.30957
80911;BME280;70359;51.420;7.032;2024-01-15T00:43:32;987.2498;;;3.08;63.26465
80911;BME280;70359;51.420;7.032;2024-01-15T00:45:57;987.248;;;3.09;63.15625
80911;BME280;70359;51.420;7.032;2024-01-15T00:48:22;987.2631;;;3.07;63.24219
80911;BME280;70359;51.420;7.032;2024-01-15T00:50:47;987.2647;;;3.04;63.60449
80911;BME280;70359;51.420;7.032;2024-01-15T00:53:12;987.1788;;;3.19;62.99219
80911;BME280;70359;51.420;7.032;2024-01-15T00:55:37;987.2589;;;3.16;62.9668
80911;BME280;70359;51.420;7.032;2024-01-15T00:58:02;987.2324;;;3.22;62.96289
80911;BME280;70359;51.420;7.032;2024-01-15T01:00:27;987.2126;;;3.18;62.9248
80911;BME280;70359;51.420;7.032;2024-01-15T01:02:52;987.274;;;3.18;62.95703
80911;BME280;70359;51.420;7.032;2024-01-15T01:05:17;987.2902;;;3.1;63.26855
80911;BME280;70359;51.420;7.032;2024-01-15T01:07:42;987.2516;;;3.15;63.26367
80911;BME280;70359;51.420;7.032;2024-01-15T01:10:07;987.1906;;;3.19;63.22559
80911;BME280;70359;51.420;7.032;2024-01-15T01:12:32;987.0928;;;3.28;62.7168
80911;BME280;70359;51.420;7.032;2024-01-15T01:14:57;987.1713;;;3.32;62.36621
80911;BME280;70359;51.420;7.032;2024-01-15T01:17:22;987.1955;;;3.34;62.34766
80911;BME280;70359;51.420;7.032;2024-01-15T01:19:47;987.1583;;;3.29;62.63965
80911;BME280;70359;51.420;7.032;2024-01-15T01:22:12;987.1347;;;3.31;62.42188
80911;BME280;70359;51.420;7.032;2024-01-15T01:24:37;987.1125;;;3.32;62.67773
80911;BME280;70359;51.420;7.032;2024-01-15T01:27:02;987.087;;;3.29;62.0957
80911;BME280;70359;51.420;7.032;2024-01-15T01:29:27;987.0653;;;3.27;62.53711
80911;BME280;70359;51.420;7.032;2024-01-15T01:31:52;987.1372;;;3.27;62.7041
80911;BME280;70359;51.420;7.032;2024-01-15T01:34:17;987.0941;;;3.27;62.64844
80911;BME280;70359;51.420;7.032;2024-01-15T01:36:42;987.0969;;;3.29;62.68457
80911;BME280;70359;51.420;7.032;2024-01-15T01:39:07;987.0689;;;3.22;63.08496
80911;BME280;70359;51.420;7.032;2024-01-15T01:41:32;987.084;;;3.28;62.91699
80911;BME280;70359;51.420;7.032;2024-01-15T01:43:57;987.0812;;;3.33;62.54492
80911;BME280;70359;51.420;7.032;2024-01-15T01:46:22;987.1071;;;3.35;62.23828
80911;BME280;70359;51.420;7.032;2024-01-15T01:48:47;987.1042;;;3.4;62.23438
80911;BME280;70359;51.420;7.032;2024-01-15T01:51:12;987.1103;;;3.39;62.37695
80911;BME280;70359;51.420;7.032;2024-01-15T01:53:37;987.1033;;;3.44;62.25098
80911;BME280;70359;51.420;7.032;2024-01-15T01:56:02;987.0953;;;3.36;62.4502
80911;BME280;70359;51.420;7.032;2024-01-15T01:58:27;987.0991;;;3.38;62.67578
80911;BME280;70359;51.420;7.032;2024-01-15T02:00:52;987.16;;;3.39;62.57813
80911;BME280;70359;51.420;7.032;2024-01-15T02:03:17;987.1171;;;3.45;62.375
80911;BME280;70359;51.420;7.032;2024-01-15T02:05:42;987.2216;;;3.46;62.06445
80911;BME280;70359;51.420;7.032;2024-01-15T02:08:07;987.1972;;;3.48;61.9668
80911;BME280;70359;51.420;7.032;2024-01-15T02:10:32;987.1654;;;3.44;62.08398
80911;BME280;70359;51.420;7.032;2024-01-15T02:12:57;987.1415;;;3.34;62.17969
80911;BME280;70359;51.420;7.032;2024-01-15T02:15:22;987.1768;;;3.34;62.65918
80911;BME280;70359;51.420;7.032;2024-01-15T02:18:03;987.1688;;;3.41;62.60156
80911;BME280;70359;51.420;7.032;2024-01-15T02:20:12;987.2307;;;3.37;62.61816
80911;BME280;70359;51.420;7.032;2024-01-15T02:22:37;987.197;;;3.39;62.24316
80911;BME280;70359;51.420;7.032;2024-01-15T02:25:02;987.2191;;;3.38;62.6084
80911;BME280;70359;51.420;7.032;2024-01-15T02:27:27;987.2353;;;3.43;62.38281
80911;BME280;70359;51.420;7.032;2024-01-15T02:29:52;987.2531;;;3.36;62.63867
80911;BME280;70359;51.420;7.032;2024-01-15T02:32:17;987.1663;;;3.37;62.56152
80911;BME280;70359;51.420;7.032;2024-01-15T02:34:42;987.2201;;;3.38;62.68652
80911;BME280;70359;51.420;7.032;2024-01-15T02:37:07;987.2582;;;3.47;62.35449
80911;BME280;70359;51.420;7.032;2024-01-15T02:39:32;987.301;;;3.42;62.49316
80911;BME280;70359;51.420;7.032;2024-01-15T02:41:57;987.2536;;;3.51;61.99316
80911;BME280;70359;51.420;7.032;2024-01-15T02:44:22;987.2726;;;3.44;61.90625
80911;BME280;70359;51.420;7.032;2024-01-15T02:46:47;987.2198;;;3.39;62.24316
80911;BME280;70359;51.420;7.032;2024-01-15T02:49:12;987.2344;;;3.47;62.00977
80911;BME280;70359;51.420;7.032;2024-01-15T02:51:37;987.2183;;;3.49;61.8125
80911;BME280;70359;51.420;7.032;2024-01-15T02:54:02;987.1248;;;3.4;62.43457
80911;BME280;70359;51.420;7.032;2024-01-15T02:56:27;987.1088;;;3.5;61.95801
80911;BME280;70359;51.420;7.032;2024-01-15T02:58:52;987.0284;;;3.47;61.77637
80911;BME280;70359;51.420;7.032;2024-01-15T03:01:17;987.0178;;;3.5;61.80371
80911;BME280;70359;51.420;7.032;2024-01-15T03:03:43;987.0229;;;3.55;61.77734
80911;BME280;70359;51.420;7.032;2024-01-15T03:06:07;987.0599;;;3.49;61.80176
80911;BME280;70359;51.420;7.032;2024-01-15T03:08:32;987.0646;;;3.5;61.99121
80911;BME280;70359;51.420;7.032;2024-01-15T03:10:57;987.039;;;3.56;61.7002
80911;BME280;70359;51.420;7.032;2024-01-15T03:13:22;987.0095;;;3.52;61.66211
80911;BME280;70359;51.420;7.032;2024-01-15T03:15:47;987.0444;;;3.44;61.90625
80911;BME280;70359;51.420;7.032;2024-01-15T03:18:12;987.0419;;;3.45;62.23145
80911;BME280;70359;51.420;7.032;2024-01-15T03:20:37;987.0744;;;3.5;62.11426
80911;BME280;70359;51.420;7.032;2024-01-15T03:23:02;987.0634;;;3.56;61.66699
80911;BME280;70359;51.420;7.032;2024-01-15T03:25:27;987.0374;;;3.53;61.68555
80911;BME280;70359;51.420;7.032;2024-01-15T03:27:52;987.0168;;;3.53;61.55176
80911;BME280;70359;51.420;7.032;2024-01-15T03:30:17;987.0089;;;3.35;62.10449
80911;BME280;70359;51.420;7.032;2024-01-15T03:32:42;987.0258;;;3.44;62.00488
80911;BME280;70359;51.420;7.032;2024-01-15T03:35:07;987.0159;;;3.4;62.24609
80911;BME280;70359;51.420;7.032;2024-01-15T03:37:32;987.0623;;;3.41;62.2793
80911;BME280;70359;51.420;7.032;2024-01-15T03:39:57;986.9888;;;3.37;62.2959
80911;BME280;70359;51.420;7.032;2024-01-15T03:42:22;987.0489;;;3.43;61.92676
80911;BME280;70359;51.420;7.032;2024-01-15T03:44:47;987.0703;;;3.35;62.29395
80911;BME280;70359;51.420;7.032;2024-01-15T03:47:12;987.0606;;;3.42;62.2041
80911;BME280;70359;51.420;7.032;2024-01-15T03:49:37;987.103;;;3.31;62.39844
80911;BME280;70359;51.420;7.032;2024-01-15T03:52:02;986.9229;;;3.32;62.67773
80911;BME280;70359;51.420;7.032;2024-01-15T03:54:27;987.0151;;;3.33;62.70117
80911;BME280;70359;51.420;7.032;2024-01-15T03:56:52;987.0313;;;3.3;62.47461
80911;BME280;70359;51.420;7.032;2024-01-15T03:59:17;987.0327;;;3.35;62.3252
80911;BME280;70359;51.420;7.032;2024-01-15T04:01:42;986.9969;;;3.37;62.20703
80911;BME280;70359;51.420;7.032;2024-01-15T04:04:07;986.9703;;;3.36;62.60449
80911;BME280;70359;51.420;7.032;2024-01-15T04:06:32;986.9863;;;3.34;62.54688
80911;BME280;70359;51.420;7.032;2024-01-15T04:08:58;986.97;;;3.38;62.5752
80911;BME280;70359;51.420;7.032;2024-01-15T04:11:22;986.8791;;;3.38;62.1416
80911;BME280;70359;51.420;7.032;2024-01-15T04:13:47;986.8842;;;3.44;62.12891
80911;BME280;70359;51.420;7.032;2024-01-15T04:16:12;986.8248;;;3.43;62.23828
80911;BME280;70359;51.420;7.032;2024-01-15T04:18:37;986.8373;;;3.46;61.8418
80911;BME280;70359;51.420;7.032;2024-01-15T04:21:02;986.7542;;;3.49;61.94629
80911;BME280;70359;51.420;7.032;2024-01-15T04:23:27;986.8254;;;3.45;61.98535
80911;BME280;70359;51.420;7.032;2024-01-15T04:25:52;986.8092;;;3.36;62.32715
80911;BME280;70359;51.420;7.032;2024-01-15T04:28:17;986.7023;;;3.39;62.33203
80911;BME280;70359;51.420;7.032;2024-01-15T04:30:42;986.6806;;;3.42;62.3916
80911;BME280;70359;51.420;7.032;2024-01-15T04:33:07;986.6486;;;3.45;62.10742
80911;BME280;70359;51.420;7.032;2024-01-15T04:35:32;986.5531;;;3.45;61.96387
80911;BME280;70359;51.420;7.032;2024-01-15T04:37:57;986.5862;;;3.5;61.74805
80911;BME280;70359;51.420;7.032;2024-01-15T04:40:22;986.5927;;;3.47;61.99902
80911;BME280;70359;51.420;7.032;2024-01-15T04:42:47;986.5027;;;3.52;61.90625
80911;BME280;70359;51.420;7.032;2024-01-15T04:45:12;986.5367;;;3.53;61.9082
80911;BME280;70359;51.420;7.032;2024-01-15T04:47:37;986.576;;;3.54;61.75195
80911;BME280;70359;51.420;7.032;2024-01-15T04:50:02;986.5602;;;3.52;62.06055
80911;BME280;70359;51.420;7.032;2024-01-15T04:52:27;986.5381;;;3.5;62.11426
80911;BME280;70359;51.420;7.032;2024-01-15T04:54:52;986.5367;;;3.48;62.22266
80911;BME280;70359;51.420;7.032;2024-01-15T04:57:17;986.4897;;;3.47;62.14355
80911;BME280;70359;51.420;7.032;2024-01-15T04:59:42;986.5465;;;3.41;62.37891
80911;BME280;70359;51.420;7.032;2024-01-15T05:02:07;986.4431;;;3.48;61.95605
80911;BME280;70359;51.420;7.032;2024-01-15T05:04:32;986.4727;;;3.46;62.19824
80911;BME280;70359;51.420;7.032;2024-01-15T05:06:57;986.4744;;;3.5;62.05859
80911;BME280;70359;51.420;7.032;2024-01-15T05:09:22;986.378;;;3.51;61.91504
80911;BME280;70359;51.420;7.032;2024-01-15T05:11:47;986.418;;;3.53;61.70801
80911;BME280;70359;51.420;7.032;2024-01-15T05:14:12;986.3937;;;3.53;61.80762
80911;BME280;70359;51.420;7.032;2024-01-15T05:16:37;986.4022;;;3.56;61.67773
80911;BME280;70359;51.420;7.032;2024-01-15T05:19:02;986.322;;;3.47;61.8877
80911;BME280;70359;51.420;7.032;2024-01-15T05:21:27;986.3265;;;3.5;61.96973
80911;BME280;70359;51.420;7.032;2024-01-15T05:23:52;986.3172;;;3.56;61.71094
80911;BME280;70359;51.420;7.032;2024-01-15T05:26:17;986.2672;;;3.47;61.67676
80911;BME280;70359;51.420;7.032;2024-01-15T05:28:44;986.2808;;;3.46;61.86426
80911;BME280;70359;51.420;7.032;2024-01-15T05:31:07;986.2224;;;3.47;61.69824
80911;BME280;70359;51.420;7.032;2024-01-15T05:33:32;986.1964;;;3.5;61.63574
80911;BME280;70359;51.420;7.032;2024-01-15T05:35:57;986.1586;;;3.47;61.89844
80911;BME280;70359;51.420;7.032;2024-01-15T05:38:22;986.1331;;;3.41;61.86719
80911;BME280;70359;51.420;7.032;2024-01-15T05:40:47;986.1522;;;3.33;62.02246
80911;BME280;70359;51.420;7.032;2024-01-15T05:43:12;986.2167;;;3.32;62.25488
80911;BME280;70359;51.420;7.032;2024-01-15T05:45:37;986.2473;;;3.19;62.65918
80911;BME280;70359;51.420;7.032;2024-01-15T05:48:02;986.1797;;;3.27;62.41504
80911;BME280;70359;51.420;7.032;2024-01-15T05:50:27;986.1594;;;3.26;62.49219
80911;BME280;70359;51.420;7.032;2024-01-15T05:52:52;986.1498;;;3.28;62.4834
80911;BME280;70359;51.420;7.032;2024-01-15T05:55:17;986.1269;;;3.28;62.62793
80911;BME280;70359;51.420;7.032;2024-01-15T05:57:42;986.1414;;;3.33;62.54492
80911;BME280;70359;51.420;7.032;2024-01-15T06:00:08;986.1406;;;3.36;62.36133
80911;BME280;70359;51.420;7.032;2024-01-15T06:02:32;986.2136;;;3.36;62.07227
80911;BME280;70359;51.420;7.032;2024-01-15T06:04:57;986.1934;;;3.27;62.59277
80911;BME280;70359;51.420;7.032;2024-01-15T06:07:22;986.166;;;3.23;62.74219
80911;BME280;70359;51.420;7.032;2024-01-15T06:09:47;986.1528;;;3.18;62.81348
80911;BME280;70359;51.420;7.032;2024-01-15T06:12:12;986.108;;;3.29;62.81641
80911;BME280;70359;51.420;7.032;2024-01-15T06:14:37;986.063;;;3.26;62.75879
80911;BME280;70359;51.420;7.032;2024-01-15T06:17:02;986.0994;;;3.35;62.45996
80911;BME280;70359;51.420;7.032;2024-01-15T06:19:27;986.0481;;;3.33;62.82324
80911;BME280;70359;51.420;7.032;2024-01-15T06:21:52;986.0732;;;3.35;62.63867
80911;BME280;70359;51.420;7.032;2024-01-15T06:24:17;986.0815;;;3.34;62.96875
80911;BME280;70359;51.420;7.032;2024-01-15T06:26:42;986.0906;;;3.4;62.8125
80911;BME280;70359;51.420;7.032;2024-01-15T06:29:07;986.11;;;3.41;62.67969
80911;BME280;70359;51.420;7.032;2024-01-15T06:31:32;986.0229;;;3.4;62.62207
80911;BME280;70359;51.420;7.032;2024-01-15T06:33:57;986.0227;;;3.37;62.77539
80911;BME280;70359;51.420;7.032;2024-01-15T06:36:22;985.9783;;;3.45;62.21875
80911;BME280;70359;51.420;7.032;2024-01-15T06:38:47;986.008;;;3.49;62.31152
80911;BME280;70359;51.420;7.032;2024-01-15T06:41:12;986.0184;;;3.41;62.7793
80911;BME280;70359;51.420;7.032;2024-01-15T06:43:37;986.0391;;;3.41;62.7793
80911;BME280;70359;51.420;7.032;2024-01-15T06:46:03;985.9844;;;3.41;63.15723
80911;BME280;70359;51.420;7.032;2024-01-15T06:48:27;985.903;;;3.53;62.24121
80911;BME280;70359;51.420;7.032;2024-01-15T06:50:52;985.9308;;;3.54;62.29883
80911;BME280;70359;51.420;7.032;2024-01-15T06:53:18;985.933;;;3.56;62.05664
80911;BME280;70359;51.420;7.032;2024-01-15T06:55:42;985.9329;;;3.55;61.94336
80911;BME280;70359;51.420;7.032;2024-01-15T06:58:07;985.9961;;;3.61;61.83008
80911;BME280;70359;51.420;7.032;2024-01-15T07:00:32;986.0098;;;3.56;61.85645
80911;BME280;70359;51.420;7.032;2024-01-15T07:02:57;986.0279;;;3.62;61.73047
80911;BME280;70359;51.420;7.032;2024-01-15T07:05:23;985.9775;;;3.61;61.79688
80911;BME280;70359;51.420;7.032;2024-01-15T07:07:47;985.9529;;;3.6;61.72852
80911;BME280;70359;51.420;7.032;2024-01-15T07:10:13;985.9617;;;3.61;61.74121
80911;BME280;70359;51.420;7.032;2024-01-15T07:12:37;985.9833;;;3.6;61.62891
80911;BME280;70359;51.420;7.032;2024-01-15T07:15:03;986.0172;;;3.58;61.7041
80911;BME280;70359;51.420;7.032;2024-01-15T07:17:28;985.9695;;;3.56;61.62207
80911;BME280;70359;51.420;7.032;2024-01-15T07:19:55;986.0324;;;3.52;61.58398
80911;BME280;70359;51.420;7.032;2024-01-15T07:22:17;986.0341;;;3.52;61.79492
80911;BME280;70359;51.420;7.032;2024-01-15T07:24:43;986.0137;;;3.52;61.79492
80911;BME280;70359;51.420;7.032;2024-01-15T07:27:08;986.0161;;;3.53;61.87402
80911;BME280;70359;51.420;7.032;2024-01-15T07:29:33;986.0131;;;3.44;62.11621
80911;BME280;70359;51.420;7.032;2024-01-15T07:31:58;986.0056;;;3.44;62.22754
80911;BME280;70359;51.420;7.032;2024-01-15T07:34:23;985.9949;;;3.45;62.36328
80911;BME280;70359;51.420;7.032;2024-01-15T07:36:48;985.975;;;3.46;62.26465
80911;BME280;70359;51.420;7.032;2024-01-15T07:39:13;985.9977;;;3.51;62.2041
80911;BME280;70359;51.420;7.032;2024-01-15T07:41:38;985.9539;;;3.57;62.06836
80911;BME280;70359;51.420;7.032;2024-01-15T07:44:03;985.9918;;;3.56;62.0791
80911;BME280;70359;51.420;7.032;2024-01-15T07:46:28;985.9377;;;3.63;61.82031
80911;BME280;70359;51.420;7.032;2024-01-15T07:48:53;986.0066;;;3.65;61.55859
80911;BME280;70359;51.420;7.032;2024-01-15T07:51:18;985.9294;;;3.56;61.84473
80911;BME280;70359;51.420;7.032;2024-01-15T07:53:43;985.9274;;;3.61;61.68555
80911;BME280;70359;51.420;7.032;2024-01-15T07:56:08;985.9539;;;3.48;61.92188
80911;BME280;70359;51.420;7.032;2024-01-15T07:58:33;985.9202;;;3.51;62.21582
80911;BME280;70359;51.420;7.032;2024-01-15T08:00:58;985.9437;;;3.51;62.19336
80911;BME280;70359;51.420;7.032;2024-01-15T08:03:23;985.9292;;;3.5;62.19238
80911;BME280;70359;51.420;7.032;2024-01-15T08:05:53;985.933;;;3.47;62.47754
80911;BME280;70359;51.420;7.032;2024-01-15T08:08:13;985.9053;;;3.5;62.27148
80911;BME280;70359;51.420;7.032;2024-01-15T08:10:38;985.942;;;3.5;62.32715
80911;BME280;70359;51.420;7.032;2024-01-15T08:13:03;985.9119;;;3.51;62.01563
80911;BME280;70359;51.420;7.032;2024-01-15T08:15:28;985.8864;;;3.46;62.38672
80911;BME280;70359;51.420;7.032;2024-01-15T08:17:53;985.8463;;;3.52;61.9834
80911;BME280;70359;51.420;7.032;2024-01-15T08:20:18;985.7967;;;3.5;62.16992
80911;BME280;70359;51.420;7.032;2024-01-15T08:22:43;985.7773;;;3.57;61.73535
80911;BME280;70359;51.420;7.032;2024-01-15T08:25:08;985.788;;;3.59;61.58301
80911;BME280;70359;51.420;7.032;2024-01-15T08:27:33;985.8267;;;3.51;61.74902
80911;BME280;70359;51.420;7.032;2024-01-15T08:29:58;985.7963;;;3.52;61.68359
80911;BME280;70359;51.420;7.032;2024-01-15T08:32:23;985.8264;;;3.52;61.88477
80911;BME280;70359;51.420;7.032;2024-01-15T08:34:48;985.7971;;;3.45;61.97363
80911;BME280;70359;51.420;7.032;2024-01-15T08:37:13;985.8614;;;3.48;61.83301
80911;BME280;70359;51.420;7.032;2024-01-15T08:39:38;985.8345;;;3.38;62.26367
80911;BME280;70359;51.420;7.032;2024-01-15T08:42:03;985.895;;;3.42;62.50391
80911;BME280;70359;51.420;7.032;2024-01-15T08:44:28;985.9332;;;3.42;62.54883
80911;BME280;70359;51.420;7.032;2024-01-15T08:46:53;985.9367;;;3.42;62.23535
80911;BME280;70359;51.420;7.032;2024-01-15T08:49:18;985.897;;;3.48;62.02246
80911;BME280;70359;51.420;7.032;2024-01-15T08:51:43;985.8601;;;3.48;61.88867
80911;BME280;70359;51.420;7.032;2024-01-15T08:54:08;985.9911;;;3.46;62.01953
80911;BME280;70359;51.420;7.032;2024-01-15T08:56:33;986.032;;;3.46;62.17578
80911;BME280;70359;51.420;7.032;2024-01-15T08:58:58;986.0531;;;3.37;62.05176
80911;BME280;70359;51.420;7.032;2024-01-15T09:01:23;986.0779;;;3.42;62.05762
80911;BME280;70359;51.420;7.032;2024-01-15T09:03:48;986.0884;;;3.36;62.18359
80911;BME280;70359;51.420;7.032;2024-01-15T09:06:13;986.1552;;;3.27;62.62598
80911;BME280;70359;51.420;7.032;2024-01-15T09:08:38;986.1537;;;3.29;62.74023
80911;BME280;70359;51.420;7.032;2024-01-15T09:11:03;986.1685;;;3.29;62.91699
80911;BME280;70359;51.420;7.032;2024-01-15T09:13:28;986.2029;;;3.35;62.61621
80911;BME280;70359;51.420;7.032;2024-01-15T09:15:53;986.178;;;3.3;62.74121
80911;BME280;70359;51.420;7.032;2024-01-15T09:18:18;986.2151;;;3.32;62.58984
80911;BME280;70359;51.420;7.032;2024-01-15T09:20:43;986.2478;;;3.25;62.86816
80911;BME280;70359;51.420;7.032;2024-01-15T09:23:08;986.2633;;;3.33;62.56738
80911;BME280;70359;51.420;7.032;2024-01-15T09:25:33;986.2095;;;3.32;62.7998
80911;BME280;70359;51.420;7.032;2024-01-15T09:27:58;986.2406;;;3.32;62.26563
80911;BME280;70359;51.420;7.032;2024-01-15T09:30:23;986.2695;;;3.34;62.41309
80911;BME280;70359;51.420;7.032;2024-01-15T09:32:48;986.267;;;3.42;62.08008
80911;BME280;70359;51.420;7.032;2024-01-15T09:35:13;986.2491;;;3.34;62.03613
80911;BME280;70359;51.420;7.032;2024-01-15T09:37:45;986.2374;;;3.39;62.26563
80911;BME280;70359;51.420;7.032;2024-01-15T09:40:03;986.2285;;;3.38;62.29785
80911;BME280;70359;51.420;7.032;2024-01-15T09:42:28;986.2356;;;3.39;62.27637
80911;BME280;70359;51.420;7.032;2024-01-15T09:44:53;986.2001;;;3.41;62.36816
80911;BME280;70359;51.420;7.032;2024-01-15T09:47:18;986.2581;;;3.49;61.97754
80911;BME280;70359;51.420;7.032;2024-01-15T09:49:43;986.33;;;3.52;61.85059
80911;BME280;70359;51.420;7.032;2024-01-15T09:52:08;986.3544;;;3.42;62.02539
80911;BME280;70359;51.420;7.032;2024-01-15T09:54:33;986.329;;;3.49;62.02344
80911;BME280;70359;51.420;7.032;2024-01-15T09:56:58;986.3339;;;3.57;61.75684
80911;BME280;70359;51.420;7.032;2024-01-15T09:59:23;986.3599;;;3.55;61.84375
80911;BME280;70359;51.420;7.032;2024-01-15T10:01:48;986.3317;;;3.49;61.92188
80911;BME280;70359;51.420;7.032;2024-01-15T10:04:13;986.3574;;;3.52;61.88281
80911;BME280;70359;51.420;7.032;2024-01-15T10:06:38;986.3097;;;3.59;61.46094
80911;BME280;70359;51.420;7.032;2024-01-15T10:09:03;986.3892;;;3.52;61.68262
80911;BME280;70359;51.420;7.032;2024-01-15T10:11:28;986.3958;;;3.49;62.16797
80911;BME280;70359;51.420;7.032;2024-01-15T10:13:53;986.3242;;;3.54;62.03027
80911;BME280;70359;51.420;7.032;2024-01-15T10:16:18;986.2769;;;3.59;61.84961
80911;BME280;70359;51.420;7.032;2024-01-15T10:18:43;986.2858;;;3.64;61.54492
80911;BME280;70359;51.420;7.032;2024-01-15T10:21:08;986.2039;;;3.54;61.83105
80911;BME280;70359;51.420;7.032;2024-01-15T10:23:33;986.2087;;;3.58;61.83594
80911;BME280;70359;51.420;7.032;2024-01-15T10:25:59;986.2108;;;3.59;61.78223
80911;BME280;70359;51.420;7.032;2024-01-15T10:28:25;986.1739;;;3.63;61.54395
80911;BME280;70359;51.420;7.032;2024-01-15T10:30:48;986.1912;;;3.63;61.46582
80911;BME280;70359;51.420;7.032;2024-01-15T10:33:13;986.1189;;;3.71;61.11035
80911;BME280;70359;51.420;7.032;2024-01-15T10:35:38;986.192;;;3.69;61.30664
80911;BME280;70359;51.420;7.032;2024-01-15T10:38:03;986.1622;;;3.74;61.02441
80911;BME280;70359;51.420;7.032;2024-01-15T10:40:28;986.1389;;;3.63;61.52051
80911;BME280;70359;51.420;7.032;2024-01-15T10:42:53;986.1887;;;3.66;61.79199
80911;BME280;70359;51.420;7.032;2024-01-15T10:45:18;986.2214;;;3.69;61.49609
80911;BME280;70359;51.420;7.032;2024-01-15T10:47:43;986.2439;;;3.68;61.59473
80911;BME280;70359;51.420;7.032;2024-01-15T10:50:08;986.2941;;;3.74;61.10254
80911;BME280;70359;51.420;7.032;2024-01-15T10:52:33;986.2623;;;3.79;61.03223
80911;BME280;70359;51.420;7.032;2024-01-15T10:54:58;986.1677;;;3.72;61.1875
80911;BME280;70359;51.420;7.032;2024-01-15T10:57:24;986.2151;;;3.72;61.21094
80911;BME280;70359;51.420;7.032;2024-01-15T10:59:48;986.1912;;;3.72;61.18945
80911;BME280;70359;51.420;7.032;2024-01-15T11:02:13;986.1948;;;3.77;61.01758
80911;BME280;70359;51.420;7.032;2024-01-15T11:04:38;986.19;;;3.57;60.98828
80911;BME280;70359;51.420;7.032;2024-01-15T11:07:03;986.2136;;;3.61;61.37402
80911;BME280;70359;51.420;7.032;2024-01-15T11:09:28;986.2281;;;3.59;61.42578
80911;BME280;70359;51.420;7.032;2024-01-15T11:12:06;986.2385;;;3.66;61.22461
80911;BME280;70359;51.420;7.032;2024-01-15T11:16:58;986.2587;;;3.57;61.38965
80911;BME280;70359;51.420;7.032;2024-01-15T11:19:08;986.3061;;;3.61;61.58594
80911;BME280;70359;51.420;7.032;2024-01-15T11:21:33;986.34;;;3.63;61.82031
80911;BME280;70359;51.420;7.032;2024-01-15T11:23:58;986.2745;;;3.59;61.42578
80911;BME280;70359;51.420;7.032;2024-01-15T11:26:36;986.2592;;;3.66;61.34668
80911;BME280;70359;51.420;7.032;2024-01-15T11:28:51;986.2978;;;3.54;61.56445
80911;BME280;70359;51.420;7.032;2024-01-15T11:33:38;986.3219;;;3.57;61.53418
80911;BME280;70359;51.420;7.032;2024-01-15T11:36:03;986.2999;;;3.52;61.91797
80911;BME280;70359;51.420;7.032;2024-01-15T11:38:31;986.2828;;;3.56;61.80078
80911;BME280;70359;51.420;7.032;2024-01-15T11:40:53;986.2539;;;3.54;62.08594
80911;BME280;70359;51.420;7.032;2024-01-15T11:43:18;986.2205;;;3.56;62.02344
80911;BME280;70359;51.420;7.032;2024-01-15T11:45:43;986.2842;;;3.6;61.8291
80911;BME280;70359;51.420;7.032;2024-01-15T11:48:17;986.2989;;;3.48;62.05566
80911;BME280;70359;51.420;7.032;2024-01-15T11:50:33;986.2623;;;3.48;62.46777
80911;BME280;70359;51.420;7.032;2024-01-15T11:53:00;986.3;;;3.46;62.70898
80911;BME280;70359;51.420;7.032;2024-01-15T11:55:25;986.1848;;;3.48;62.62305
80911;BME280;70359;51.420;7.032;2024-01-15T11:57:49;986.1194;;;3.56;62.0791
80911;BME280;70359;51.420;7.032;2024-01-15T12:00:13;986.1266;;;3.52;62.2627
80911;BME280;70359;51.420;7.032;2024-01-15T12:02:38;986.1378;;;3.53;62.23047
80911;BME280;70359;51.420;7.032;2024-01-15T12:05:03;986.1595;;;3.55;62.32227
80911;BME280;70359;51.420;7.032;2024-01-15T12:07:28;986.1227;;;3.58;62.31445
80911;BME280;70359;51.420;7.032;2024-01-15T12:09:53;986.1401;;;3.57;62.05859
80911;BME280;70359;51.420;7.032;2024-01-15T12:12:21;986.152;;;3.59;61.58203
80911;BME280;70359;51.420;7.032;2024-01-15T12:14:43;986.2347;;;3.58;61.74902
80911;BME280;70359;51.420;7.032;2024-01-15T12:17:08;986.24;;;3.6;61.75
80911;BME280;70359;51.420;7.032;2024-01-15T12:19:33;986.1891;;;3.5;61.95801
80911;BME280;70359;51.420;7.032;2024-01-15T12:21:58;986.2633;;;3.52;62.07227
80911;BME280;70359;51.420;7.032;2024-01-15T12:24:23;986.185;;;3.5;62.08203
80911;BME280;70359;51.420;7.032;2024-01-15T12:26:48;986.1128;;;3.52;62.29492
80911;BME280;70359;51.420;7.032;2024-01-15T12:29:13;986.1308;;;3.52;62.30566
80911;BME280;70359;51.420;7.032;2024-01-15T12:31:38;986.1506;;;3.58;62.24902
80911;BME280;70359;51.420;7.032;2024-01-15T12:34:03;986.1289;;;3.57;62.70313